Commerce, Texas
Current Conditions -  °F | °C
As of 7:55 PM on Sunday 21 Dec 2014 (Local Time) from KGVT Reporting Station
Overcast Overcast  
Wind Chill: 50°   Ceiling: 1400
Heat Index: 50°   Visibility: 10mi
Dew Point: 45°   Wind: 12mph
Humidity: 82%   Direction: 150°SSE
Pressure: 29.84"   Gusts: NA
Location:  33.25°N, 95.9°W
Report Text: KGVT 220155Z AUTO 15010KT 10SM SCT010 BKN014 OVC027 10/07 A2984 RMK AO2
Loading
Personal Weather Stations






























Interactive Weather Map New forecast layout! Learn more

10-Day Weather Forecast

Advertisements
Track Severe Weather on mobile